Terminal Aerodrome Forecast
Issued by NWS Buffalo, NY

Current Version | Previous Version | Text Only | Print | Product List | Glossary On
Versions: 1 2 3 4 5 6 7 8 9 10 11 12 13 14 15 16 17 18 19 20 21 22 23 24 25 26
000
FTUS41 KBUF 212100 AAB
TAFBUF
TAF AMD
KBUF 212109Z 2121/2218 23013KT P6SM FEW040
     FM220000 21005KT P6SM BKN035
     FM220600 VRB03KT P6SM BKN035
     FM220900 VRB03KT 6SM BR BKN020
     FM221600 03004KT P6SM BKN025=

USA.gov is the U.S. government's official web portal to all federal, state and local government web resources and services.